Time;durP1;ratioP1;P1;durP2;ratioP2;P2;SDS_P1;SDS_P2;PMS_P1;PMS_P2;Temp;Humidity;BMP_temperature;BMP_pressure;BME280_temperature;BME280_humidity;BME280_pressure;Samples;Min_cycle;Max_cycle;Signal;HPM_P1;HPM_P2
2023/06/03 00:00:06;;;;;;;13.00;8.70;;;19.50;80.60;;;;;;5097089;28;20039;-75
2023/06/03 00:02:32;;;;;;;16.88;9.20;;;19.50;79.80;;;;;;5097147;28;20092;-75
2023/06/03 00:05:00;;;;;;;13.10;8.30;;;19.50;79.40;;;;;;5080682;28;20753;-75
2023/06/03 00:07:27;;;;;;;13.63;9.13;;;19.40;79.40;;;;;;5096654;28;20039;-75
2023/06/03 00:09:53;;;;;;;18.90;9.10;;;19.40;79.30;;;;;;5096354;28;20338;-75
2023/06/03 00:12:20;;;;;;;15.88;8.60;;;19.40;79.50;;;;;;5096159;28;20036;-74
2023/06/03 00:14:46;;;;;;;14.07;8.82;;;19.40;79.40;;;;;;5096639;28;20046;-73
2023/06/03 00:17:12;;;;;;;15.38;9.13;;;19.40;79.20;;;;;;5094338;28;20480;-73
2023/06/03 00:19:42;;;;;;;12.75;8.60;;;19.30;79.00;;;;;;5095576;28;20126;-74
2023/06/03 00:22:08;;;;;;;15.07;8.13;;;19.30;78.90;;;;;;5095277;28;20055;-74
2023/06/03 00:24:34;;;;;;;13.07;8.57;;;19.30;78.70;;;;;;5095076;28;20467;-73
2023/06/03 00:27:00;;;;;;;11.55;7.13;;;19.30;78.70;;;;;;5095319;28;20042;-73
2023/06/03 00:29:26;;;;;;;11.48;7.85;;;19.20;79.30;;;;;;5095112;28;20510;-72
2023/06/03 00:31:53;;;;;;;10.55;7.28;;;19.20;78.70;;;;;;5095456;28;20031;-72
2023/06/03 00:34:19;;;;;;;10.52;7.68;;;19.20;78.90;;;;;;5077204;28;20039;-73
2023/06/03 00:36:45;;;;;;;10.82;7.68;;;19.20;78.80;;;;;;5094986;28;20463;-74
2023/06/03 00:39:11;;;;;;;11.68;7.60;;;19.20;79.10;;;;;;5093827;28;20525;-73
2023/06/03 00:41:37;;;;;;;9.18;7.28;;;19.10;79.20;;;;;;5093220;28;20040;-74
2023/06/03 00:44:03;;;;;;;13.25;7.82;;;19.10;79.10;;;;;;5099467;28;20083;-74
2023/06/03 00:46:34;;;;;;;10.10;7.03;;;19.10;78.80;;;;;;5095432;28;20562;-74
2023/06/03 00:49:01;;;;;;;9.68;6.53;;;19.10;78.60;;;;;;5093056;28;20074;-75
2023/06/03 00:51:30;;;;;;;11.38;6.88;;;19.10;78.50;;;;;;5095980;28;20039;-74
2023/06/03 00:53:56;;;;;;;11.45;6.28;;;19.10;78.40;;;;;;5094272;28;20036;-73
2023/06/03 00:56:22;;;;;;;9.80;6.15;;;19.10;78.20;;;;;;5094748;28;20115;-74
2023/06/03 00:58:49;;;;;;;13.50;6.10;;;19.00;78.10;;;;;;5095014;28;20427;-74
2023/06/03 01:01:15;;;;;;;8.80;5.63;;;19.00;78.20;;;;;;5093841;28;20405;-74
2023/06/03 01:03:42;;;;;;;7.03;5.57;;;19.00;78.20;;;;;;5094020;28;20039;-74
2023/06/03 01:06:23;;;;;;;8.95;5.88;;;19.00;78.10;;;;;;5093732;28;20546;-74
2023/06/03 01:08:57;;;;;;;8.82;6.15;;;19.00;78.10;;;;;;5094969;28;20036;-74
2023/06/03 01:11:35;;;;;;;8.52;5.70;;;18.90;78.10;;;;;;5094397;28;20501;-74
2023/06/03 01:14:11;;;;;;;10.30;6.18;;;19.00;78.20;;;;;;5094141;28;20039;-74
2023/06/03 01:16:44;;;;;;;9.98;6.20;;;18.90;78.00;;;;;;5093585;28;20039;-74
2023/06/03 01:19:38;;;;;;;10.20;5.78;;;18.90;77.50;;;;;;5092342;28;20040;-74
2023/06/03 01:22:07;;;;;;;9.48;5.30;;;18.80;77.10;;;;;;5084886;28;20032;-74
2023/06/03 01:24:34;;;;;;;8.63;5.18;;;18.80;77.20;;;;;;5068494;28;20046;-74
2023/06/03 01:27:00;;;;;;;6.57;5.50;;;18.80;77.00;;;;;;5094130;28;20070;-74
2023/06/03 01:29:27;;;;;;;7.85;5.20;;;18.80;76.90;;;;;;5091803;28;20047;-74
2023/06/03 01:31:55;;;;;;;6.53;5.43;;;18.70;77.00;;;;;;5077232;28;20551;-74
2023/06/03 01:34:21;;;;;;;7.53;5.60;;;18.70;76.80;;;;;;5093003;28;20418;-74
2023/06/03 01:36:47;;;;;;;6.25;5.47;;;18.70;76.60;;;;;;5094410;28;20032;-74
2023/06/03 01:39:14;;;;;;;6.85;5.43;;;18.60;76.90;;;;;;5093615;28;20054;-74
2023/06/03 01:41:42;;;;;;;7.25;5.85;;;18.60;77.30;;;;;;5094439;28;20115;-74
2023/06/03 01:44:08;;;;;;;6.65;5.63;;;18.60;77.40;;;;;;5094898;28;20036;-74
2023/06/03 01:46:35;;;;;;;7.43;5.60;;;18.60;77.70;;;;;;5095224;28;20050;-74
2023/06/03 01:49:08;;;;;;;7.70;5.72;;;18.60;77.60;;;;;;5093400;28;20071;-74
2023/06/03 01:51:35;;;;;;;8.23;6.43;;;18.60;77.50;;;;;;5098018;28;20513;-74
2023/06/03 01:54:03;;;;;;;9.07;6.25;;;18.50;77.70;;;;;;5094160;28;20044;-74
2023/06/03 01:56:29;;;;;;;7.47;5.72;;;18.50;77.50;;;;;;5093927;28;20115;-75
2023/06/03 01:58:57;;;;;;;8.30;5.82;;;18.50;77.70;;;;;;5094237;28;20453;-73
2023/06/03 02:01:24;;;;;;;9.93;6.43;;;18.50;77.70;;;;;;5077299;28;20032;-74
2023/06/03 02:03:50;;;;;;;8.02;5.40;;;18.50;77.70;;;;;;5076300;28;20063;-73
2023/06/03 02:06:16;;;;;;;8.15;5.93;;;18.40;77.60;;;;;;5094019;28;20035;-73
2023/06/03 02:08:43;;;;;;;6.50;5.05;;;18.40;77.70;;;;;;5093872;28;20036;-73
2023/06/03 02:11:09;;;;;;;6.22;5.18;;;18.40;77.70;;;;;;5092799;28;20048;-73
2023/06/03 02:13:35;;;;;;;8.65;5.70;;;18.40;77.70;;;;;;5094273;28;20043;-73
2023/06/03 02:16:02;;;;;;;7.20;5.38;;;18.40;77.80;;;;;;5094941;28;20498;-73
2023/06/03 02:18:29;;;;;;;6.57;4.93;;;18.40;78.20;;;;;;5092490;28;20055;-73
2023/06/03 02:20:55;;;;;;;5.57;4.93;;;18.40;78.00;;;;;;5092865;28;20032;-73
2023/06/03 02:23:21;;;;;;;6.65;4.88;;;18.40;77.90;;;;;;5095006;28;20123;-73
2023/06/03 02:25:48;;;;;;;5.20;4.25;;;18.30;77.90;;;;;;5095454;28;20118;-73
2023/06/03 02:28:16;;;;;;;5.72;4.60;;;18.30;77.60;;;;;;5094139;28;20033;-74
2023/06/03 02:30:43;;;;;;;5.40;4.20;;;18.30;78.20;;;;;;5094480;28;20070;-74
2023/06/03 02:33:09;;;;;;;5.40;3.90;;;18.30;78.10;;;;;;5092664;28;20518;-73
2023/06/03 02:35:35;;;;;;;5.72;4.38;;;18.30;78.30;;;;;;5093807;28;20035;-73
2023/06/03 02:38:01;;;;;;;4.68;3.78;;;18.20;78.00;;;;;;5094172;28;20024;-73
2023/06/03 02:40:27;;;;;;;5.50;3.65;;;18.20;77.90;;;;;;5093788;28;20484;-73
2023/06/03 02:42:53;;;;;;;3.58;3.28;;;18.20;77.70;;;;;;5095368;28;20634;-74
2023/06/03 02:45:19;;;;;;;4.03;3.40;;;18.20;78.00;;;;;;5093299;28;20035;-74
2023/06/03 02:47:45;;;;;;;4.82;2.70;;;18.10;77.80;;;;;;5097870;28;20118;-74
2023/06/03 02:50:11;;;;;;;5.05;3.15;;;18.10;77.60;;;;;;5096138;28;20486;-73
2023/06/03 02:52:37;;;;;;;3.47;3.13;;;18.10;77.80;;;;;;5097886;28;21211;-74
2023/06/03 02:55:05;;;;;;;3.20;2.38;;;18.10;77.80;;;;;;5062959;28;20131;-74
2023/06/03 02:57:31;;;;;;;4.70;2.80;;;18.10;77.50;;;;;;5083155;28;20040;-74
2023/06/03 02:59:57;;;;;;;2.60;2.40;;;18.10;77.70;;;;;;5100106;28;22334;-74
2023/06/03 03:02:25;;;;;;;2.35;2.15;;;18.00;77.20;;;;;;5096530;28;20039;-74
2023/06/03 03:04:52;;;;;;;2.83;2.17;;;18.00;76.80;;;;;;5097560;28;20028;-74
2023/06/03 03:07:20;;;;;;;2.70;2.10;;;18.00;76.80;;;;;;5079110;28;20130;-74
2023/06/03 03:09:46;;;;;;;3.95;2.28;;;18.00;76.90;;;;;;5095638;28;20114;-74
2023/06/03 03:12:12;;;;;;;4.93;2.00;;;17.90;76.90;;;;;;5079601;28;20051;-74
2023/06/03 03:14:42;;;;;;;2.17;1.80;;;17.90;76.80;;;;;;5096046;28;20623;-74
2023/06/03 03:17:08;;;;;;;2.00;1.80;;;17.90;76.60;;;;;;5097024;28;20036;-74
2023/06/03 03:19:35;;;;;;;1.75;1.65;;;17.80;76.30;;;;;;5095877;28;20064;-74
2023/06/03 03:22:02;;;;;;;1.83;1.45;;;17.80;76.20;;;;;;5096311;28;20040;-75
2023/06/03 03:24:30;;;;;;;3.28;1.40;;;17.80;76.40;;;;;;5096500;28;20035;-72
2023/06/03 03:26:56;;;;;;;1.42;1.33;;;17.80;76.60;;;;;;5113913;27;20488;-74
2023/06/03 03:29:25;;;;;;;1.90;1.60;;;17.70;76.70;;;;;;5082699;28;20409;-74
2023/06/03 03:31:59;;;;;;;1.23;1.10;;;17.70;76.70;;;;;;5095206;28;20056;-73
2023/06/03 03:34:25;;;;;;;1.20;1.10;;;17.70;76.80;;;;;;5097304;28;20055;-74
2023/06/03 03:36:52;;;;;;;1.33;1.20;;;17.70;77.10;;;;;;5095159;28;20071;-73
2023/06/03 03:39:18;;;;;;;1.65;1.30;;;17.70;76.80;;;;;;5094424;28;20031;-73
2023/06/03 03:41:48;;;;;;;1.00;1.00;;;17.70;76.20;;;;;;5100765;28;20570;-73
2023/06/03 03:44:14;;;;;;;2.25;1.00;;;17.60;76.00;;;;;;5095255;28;20126;-73
2023/06/03 03:47:08;;;;;;;1.13;1.13;;;17.60;76.50;;;;;;5096175;28;20036;-73
2023/06/03 03:49:37;;;;;;;3.22;1.00;;;17.70;76.80;;;;;;5095574;28;20052;-74
2023/06/03 03:52:07;;;;;;;1.35;1.25;;;17.60;77.10;;;;;;5078227;28;20070;-73
2023/06/03 03:54:37;;;;;;;1.42;0.90;;;17.60;76.30;;;;;;5096238;28;20040;-73
2023/06/03 03:57:10;;;;;;;4.70;1.00;;;17.60;76.30;;;;;;5095036;28;20114;-73
2023/06/03 03:59:37;;;;;;;1.15;1.02;;;17.60;76.50;;;;;;5098971;28;20040;-73
2023/06/03 04:02:04;;;;;;;4.55;1.30;;;17.60;76.50;;;;;;5086244;28;20036;-73
2023/06/03 04:04:44;;;;;;;1.65;1.00;;;17.50;76.30;;;;;;5078582;28;20208;-73
2023/06/03 04:07:16;;;;;;;1.25;0.80;;;17.50;75.30;;;;;;5094616;28;20052;-72
2023/06/03 04:09:42;;;;;;;1.52;0.93;;;17.50;75.30;;;;;;5096670;28;20068;-73
2023/06/03 04:12:32;;;;;;;2.28;1.10;;;17.50;75.80;;;;;;5096476;28;20142;-73
2023/06/03 04:15:00;;;;;;;1.10;1.00;;;17.40;75.50;;;;;;5093389;28;20051;-72
2023/06/03 04:17:27;;;;;;;0.98;0.80;;;17.50;75.60;;;;;;5094035;28;20064;-73
2023/06/03 04:19:55;;;;;;;0.82;0.80;;;17.40;76.00;;;;;;5093787;28;20440;-73
2023/06/03 04:22:25;;;;;;;1.80;0.75;;;17.50;76.10;;;;;;5077163;28;20050;-72
2023/06/03 04:24:59;;;;;;;1.35;0.70;;;17.50;76.40;;;;;;5082855;28;20030;-73
2023/06/03 04:27:41;;;;;;;0.90;0.90;;;17.40;75.50;;;;;;5093975;28;20035;-73
2023/06/03 04:30:10;;;;;;;1.98;0.80;;;17.40;75.20;;;;;;5093983;28;20048;-73
2023/06/03 04:32:37;;;;;;;0.80;0.80;;;17.40;75.70;;;;;;5077987;28;20028;-72
2023/06/03 04:35:03;;;;;;;1.70;1.00;;;17.30;75.80;;;;;;5080805;28;20038;-74
2023/06/03 04:37:31;;;;;;;0.77;0.77;;;17.40;75.50;;;;;;5094996;28;20777;-72
2023/06/03 04:39:58;;;;;;;2.42;0.73;;;17.30;75.60;;;;;;5094232;28;20568;-73
2023/06/03 04:42:26;;;;;;;0.93;0.70;;;17.30;75.40;;;;;;5094268;28;20477;-73
2023/06/03 04:44:58;;;;;;;2.05;0.75;;;17.30;75.30;;;;;;5077153;28;20032;-73
2023/06/03 04:47:28;;;;;;;1.17;0.60;;;17.30;75.50;;;;;;5093649;28;20383;-75
2023/06/03 04:49:55;;;;;;;0.52;0.52;;;17.30;75.70;;;;;;5076503;28;20114;-75
2023/06/03 04:52:22;;;;;;;0.55;0.55;;;17.30;76.10;;;;;;5093985;28;20050;-73
2023/06/03 04:54:52;;;;;;;0.47;0.45;;;17.30;76.40;;;;;;5093856;28;20039;-73
2023/06/03 04:57:21;;;;;;;0.52;0.52;;;17.30;76.30;;;;;;5092584;28;20456;-73
2023/06/03 04:59:47;;;;;;;0.68;0.65;;;17.30;76.50;;;;;;5094084;28;20028;-74
2023/06/03 05:02:16;;;;;;;1.35;0.77;;;17.30;76.40;;;;;;5093605;28;20027;-74
2023/06/03 05:04:44;;;;;;;0.73;0.55;;;17.40;76.40;;;;;;5094736;28;20093;-73
2023/06/03 05:07:13;;;;;;;0.60;0.50;;;17.30;76.00;;;;;;5092620;28;20351;-73
2023/06/03 05:09:39;;;;;;;0.95;0.52;;;17.30;76.00;;;;;;5092941;28;20042;-73
2023/06/03 05:12:07;;;;;;;0.60;0.50;;;17.30;76.10;;;;;;5093626;28;20050;-72
2023/06/03 05:14:34;;;;;;;1.08;0.68;;;17.30;76.50;;;;;;5092590;28;20047;-73
2023/06/03 05:17:00;;;;;;;1.23;0.57;;;17.30;75.60;;;;;;5092792;28;20414;-72
2023/06/03 05:19:26;;;;;;;0.47;0.47;;;17.30;75.60;;;;;;5092583;28;20028;-72
2023/06/03 05:21:53;;;;;;;0.70;0.40;;;17.30;75.60;;;;;;5093446;28;20032;-72
2023/06/03 05:24:20;;;;;;;0.68;0.52;;;17.30;75.60;;;;;;5093566;28;20119;-73
2023/06/03 05:26:46;;;;;;;0.73;0.40;;;17.20;75.70;;;;;;5093278;28;20114;-72
2023/06/03 05:29:12;;;;;;;0.60;0.38;;;17.20;75.60;;;;;;5076890;28;20043;-72
2023/06/03 05:31:38;;;;;;;0.70;0.50;;;17.30;75.80;;;;;;5094791;28;20024;-72
2023/06/03 05:34:04;;;;;;;4.10;0.88;;;17.20;75.60;;;;;;5093011;28;20517;-72
2023/06/03 05:36:31;;;;;;;1.58;0.50;;;17.20;75.30;;;;;;5092584;28;20036;-72
2023/06/03 05:38:59;;;;;;;2.08;0.50;;;17.20;75.10;;;;;;5092834;28;20035;-72
2023/06/03 05:41:25;;;;;;;0.98;0.50;;;17.20;75.30;;;;;;5091658;28;20509;-72
2023/06/03 05:43:53;;;;;;;2.47;0.60;;;17.20;74.70;;;;;;5093578;28;20036;-72
2023/06/03 05:46:20;;;;;;;0.50;0.50;;;17.10;74.40;;;;;;5092442;28;20355;-72
2023/06/03 05:48:47;;;;;;;0.63;0.57;;;17.10;74.80;;;;;;5094717;27;20035;-71
2023/06/03 05:51:14;;;;;;;0.65;0.52;;;17.10;74.70;;;;;;5093059;28;20035;-72
2023/06/03 05:53:43;;;;;;;0.82;0.50;;;17.10;74.80;;;;;;5091808;28;20046;-73
2023/06/03 05:56:11;;;;;;;0.60;0.50;;;17.10;74.60;;;;;;5092335;28;20040;-73
2023/06/03 05:58:38;;;;;;;0.65;0.63;;;17.10;74.20;;;;;;5094537;28;20040;-72
2023/06/03 06:01:05;;;;;;;1.58;0.73;;;17.00;73.90;;;;;;5092581;28;20533;-72
2023/06/03 06:03:31;;;;;;;0.90;0.60;;;17.00;74.00;;;;;;5092280;28;20044;-72
2023/06/03 06:05:59;;;;;;;2.35;0.80;;;17.00;74.10;;;;;;5093199;28;20040;-72
2023/06/03 06:08:25;;;;;;;1.67;0.55;;;17.00;74.20;;;;;;5092729;28;20032;-72
2023/06/03 06:10:52;;;;;;;0.82;0.70;;;17.00;74.00;;;;;;5093681;28;20036;-72
2023/06/03 06:13:18;;;;;;;0.82;0.77;;;17.00;74.20;;;;;;5094432;28;20048;-73
2023/06/03 06:16:02;;;;;;;0.70;0.70;;;16.90;73.70;;;;;;5092367;28;20401;-72
2023/06/03 06:18:32;;;;;;;0.75;0.75;;;16.90;73.90;;;;;;5092334;28;20025;-72
2023/06/03 06:20:59;;;;;;;1.52;0.80;;;16.90;74.30;;;;;;5110304;27;20039;-72
2023/06/03 06:23:25;;;;;;;1.63;0.80;;;16.90;73.60;;;;;;5101768;28;20430;-72
2023/06/03 06:25:53;;;;;;;1.13;1.02;;;16.90;73.80;;;;;;5097447;28;20451;-72
2023/06/03 06:28:28;;;;;;;0.90;0.90;;;16.90;73.10;;;;;;5095369;28;20529;-72
2023/06/03 06:31:04;;;;;;;1.20;0.75;;;16.80;73.00;;;;;;5094683;28;20032;-72
2023/06/03 06:33:35;;;;;;;1.67;1.25;;;16.80;73.50;;;;;;5096427;28;20028;-72
2023/06/03 06:36:39;;;;;;;0.90;0.90;;;16.80;73.60;;;;;;5097188;28;20035;-72
2023/06/03 06:39:35;;;;;;;0.87;0.87;;;16.80;73.20;;;;;;5096228;28;20035;-72
2023/06/03 06:42:26;;;;;;;1.33;1.23;;;16.80;72.90;;;;;;5096690;28;20032;-72
2023/06/03 06:44:55;;;;;;;0.82;0.82;;;16.70;72.80;;;;;;5097008;28;20505;-73
2023/06/03 06:47:26;;;;;;;1.08;0.93;;;16.70;72.90;;;;;;5096153;28;20127;-75
2023/06/03 06:49:57;;;;;;;1.33;1.23;;;16.70;73.00;;;;;;5066857;28;20024;-72
2023/06/03 06:52:26;;;;;;;1.38;1.00;;;16.60;72.60;;;;;;5096312;28;20036;-72
2023/06/03 06:54:59;;;;;;;2.13;1.20;;;16.70;72.90;;;;;;5097015;28;20044;-73
2023/06/03 06:57:28;;;;;;;1.13;1.10;;;16.60;73.60;;;;;;5096433;28;20093;-72
2023/06/03 06:59:55;;;;;;;1.50;1.33;;;16.70;73.90;;;;;;5099659;28;20031;-73
2023/06/03 07:02:22;;;;;;;1.98;1.20;;;16.70;73.20;;;;;;5095922;28;20080;-72
2023/06/03 07:04:51;;;;;;;1.50;1.40;;;16.70;73.00;;;;;;5097496;28;20027;-73
2023/06/03 07:07:18;;;;;;;1.25;1.20;;;16.60;72.80;;;;;;5095937;28;20044;-73
2023/06/03 07:09:45;;;;;;;1.40;1.38;;;16.60;73.00;;;;;;5082031;28;20062;-73
2023/06/03 07:12:12;;;;;;;2.10;1.95;;;16.70;73.00;;;;;;5094122;28;20055;-73
2023/06/03 07:14:38;;;;;;;1.40;1.30;;;16.60;72.80;;;;;;5096126;28;20044;-73
2023/06/03 07:17:05;;;;;;;1.70;1.60;;;16.60;72.80;;;;;;5096152;28;20080;-73
2023/06/03 07:19:38;;;;;;;1.48;1.38;;;16.60;72.90;;;;;;5093925;28;20039;-74
2023/06/03 07:22:06;;;;;;;1.98;1.48;;;16.60;73.00;;;;;;5095765;28;20035;-73
2023/06/03 07:24:35;;;;;;;1.80;1.70;;;16.60;73.20;;;;;;5094769;28;20028;-73
2023/06/03 07:27:06;;;;;;;2.20;1.70;;;16.60;73.40;;;;;;5097258;28;20126;-72
2023/06/03 07:29:38;;;;;;;1.80;1.70;;;16.60;73.40;;;;;;5100690;28;20111;-72
2023/06/03 07:32:09;;;;;;;1.88;1.73;;;16.60;73.80;;;;;;5094070;28;20110;-72
2023/06/03 07:34:36;;;;;;;1.70;1.50;;;16.60;73.70;;;;;;5095685;28;20455;-73
2023/06/03 07:37:07;;;;;;;1.60;1.50;;;16.60;73.90;;;;;;5095076;28;20407;-71
2023/06/03 07:39:35;;;;;;;1.40;1.30;;;16.60;74.20;;;;;;5084033;28;20028;-73
2023/06/03 07:42:13;;;;;;;2.55;1.65;;;16.60;74.00;;;;;;5095776;28;20039;-73
2023/06/03 07:44:55;;;;;;;1.77;1.30;;;16.60;74.20;;;;;;5081845;28;20081;-72
2023/06/03 07:47:21;;;;;;;4.85;1.38;;;16.60;74.50;;;;;;5096598;28;20032;-76
2023/06/03 07:49:48;;;;;;;1.83;1.02;;;16.70;74.30;;;;;;5098197;28;20362;-74
2023/06/03 07:52:19;;;;;;;1.45;1.17;;;16.70;74.40;;;;;;5096988;28;20477;-73
2023/06/03 07:54:45;;;;;;;2.47;1.00;;;16.60;74.20;;;;;;5096433;28;20028;-73
2023/06/03 07:57:15;;;;;;;1.08;0.90;;;16.60;73.90;;;;;;5094836;28;20037;-73
2023/06/03 07:59:59;;;;;;;0.95;0.55;;;16.60;74.00;;;;;;5096037;28;20040;-72
2023/06/03 08:02:26;;;;;;;2.65;0.70;;;16.60;73.90;;;;;;5095908;28;20031;-73
2023/06/03 08:04:55;;;;;;;2.17;0.50;;;16.60;74.30;;;;;;5095533;28;20262;-73
2023/06/03 08:07:25;;;;;;;1.63;0.60;;;16.60;74.20;;;;;;5095530;28;20062;-74
2023/06/03 08:09:51;;;;;;;1.60;0.77;;;16.60;73.80;;;;;;5095062;28;20506;-74
2023/06/03 08:12:22;;;;;;;1.67;0.50;;;16.50;74.00;;;;;;5095414;28;20065;-74
2023/06/03 08:14:48;;;;;;;1.50;0.50;;;16.50;74.00;;;;;;5095935;28;20050;-74
2023/06/03 08:17:15;;;;;;;1.92;0.60;;;16.40;73.70;;;;;;5095853;28;20027;-74
2023/06/03 08:19:45;;;;;;;2.75;0.60;;;16.40;73.40;;;;;;5095737;28;20032;-73
2023/06/03 08:22:29;;;;;;;2.35;0.70;;;16.40;73.60;;;;;;5095915;28;20320;-74
2023/06/03 08:24:55;;;;;;;0.70;0.55;;;16.30;73.70;;;;;;5095539;28;20038;-74
2023/06/03 08:27:21;;;;;;;1.38;0.57;;;16.30;73.60;;;;;;5096342;28;20032;-74
2023/06/03 08:29:47;;;;;;;1.05;0.70;;;16.40;73.70;;;;;;5094172;28;20032;-73
2023/06/03 08:32:13;;;;;;;1.63;0.70;;;16.40;74.00;;;;;;5095242;28;20490;-72
2023/06/03 08:34:39;;;;;;;2.75;0.75;;;16.40;74.20;;;;;;5095550;28;20137;-74
2023/06/03 08:37:06;;;;;;;1.88;0.47;;;16.40;74.40;;;;;;5095274;28;20070;-73
2023/06/03 08:39:32;;;;;;;1.50;0.63;;;16.40;73.90;;;;;;5095461;28;20550;-72
2023/06/03 08:42:06;;;;;;;2.60;0.70;;;16.40;74.50;;;;;;5095195;28;20738;-74
2023/06/03 08:44:46;;;;;;;2.40;0.50;;;16.40;73.60;;;;;;5092828;28;20051;-74
2023/06/03 08:47:16;;;;;;;0.77;0.52;;;16.30;74.10;;;;;;5093440;28;20028;-73
2023/06/03 08:50:10;;;;;;;2.20;0.70;;;16.30;73.60;;;;;;5077108;28;20356;-73
2023/06/03 08:52:42;;;;;;;0.70;0.47;;;16.30;73.90;;;;;;5090455;28;20107;-76
2023/06/03 08:55:15;;;;;;;0.88;0.50;;;16.30;73.90;;;;;;5095073;28;20044;-73
2023/06/03 08:58:18;;;;;;;1.45;0.60;;;16.30;73.90;;;;;;5094430;28;20043;-73
2023/06/03 09:00:46;;;;;;;2.33;0.80;;;16.20;73.40;;;;;;5094074;28;20107;-74
2023/06/03 09:03:13;;;;;;;1.25;0.77;;;16.20;73.30;;;;;;5093571;28;20514;-78
2023/06/03 09:05:39;;;;;;;1.13;0.50;;;16.20;73.40;;;;;;5078517;28;20043;-75
2023/06/03 09:08:06;;;;;;;0.80;0.60;;;16.20;73.80;;;;;;5096865;28;20036;-75
2023/06/03 09:10:33;;;;;;;1.52;0.75;;;16.10;74.70;;;;;;5094292;28;20028;-74
2023/06/03 09:13:01;;;;;;;1.23;0.60;;;16.20;74.40;;;;;;5095147;28;20044;-75
2023/06/03 09:15:29;;;;;;;1.02;0.80;;;16.10;74.40;;;;;;5096400;28;20456;-74
2023/06/03 09:17:55;;;;;;;1.45;0.60;;;16.10;74.50;;;;;;5098023;28;20394;-74
2023/06/03 09:20:21;;;;;;;3.78;0.60;;;16.10;74.90;;;;;;5098306;28;20031;-78
2023/06/03 09:22:47;;;;;;;1.13;0.50;;;16.10;75.80;;;;;;5098762;28;20032;-78
2023/06/03 09:25:13;;;;;;;2.63;0.45;;;16.20;76.30;;;;;;5101198;28;20077;-77
2023/06/03 09:27:40;;;;;;;4.32;0.60;;;16.20;75.90;;;;;;5095845;28;20078;-78
2023/06/03 09:30:07;;;;;;;1.55;0.50;;;16.20;75.60;;;;;;5097330;28;20072;-77
2023/06/03 09:32:35;;;;;;;1.88;0.43;;;16.20;75.10;;;;;;5082664;28;20450;-77
2023/06/03 09:35:04;;;;;;;0.90;0.40;;;16.20;75.10;;;;;;5093617;28;20033;-77
2023/06/03 09:37:34;;;;;;;1.65;0.60;;;16.10;75.40;;;;;;5095056;28;20078;-77
2023/06/03 09:40:05;;;;;;;0.73;0.45;;;16.20;74.80;;;;;;5094800;28;20089;-77
2023/06/03 09:42:45;;;;;;;1.08;0.57;;;16.10;74.30;;;;;;5080877;28;20403;-75
2023/06/03 09:45:30;;;;;;;0.70;0.40;;;16.20;73.40;;;;;;5093568;28;20035;-76
2023/06/03 09:47:57;;;;;;;1.10;0.80;;;16.10;73.40;;;;;;5093972;28;20048;-76
2023/06/03 09:50:24;;;;;;;0.73;0.50;;;16.10;73.00;;;;;;5091865;28;20039;-75
2023/06/03 09:52:50;;;;;;;0.63;0.45;;;16.10;72.60;;;;;;5094807;28;20461;-75
2023/06/03 09:55:17;;;;;;;1.08;0.52;;;16.10;72.80;;;;;;5092777;28;20032;-75
2023/06/03 09:58:04;;;;;;;1.45;0.60;;;16.00;73.10;;;;;;5093045;28;20500;-73
2023/06/03 10:00:49;;;;;;;0.50;0.47;;;16.00;73.10;;;;;;5094603;28;20044;-75
2023/06/03 10:03:20;;;;;;;2.72;0.60;;;16.00;73.00;;;;;;5093510;28;20032;-74
2023/06/03 10:05:46;;;;;;;1.67;0.50;;;16.00;73.40;;;;;;5093511;28;20448;-74
2023/06/03 10:08:12;;;;;;;0.77;0.60;;;15.90;73.40;;;;;;5092887;28;20035;-74
2023/06/03 10:10:55;;;;;;;1.85;0.57;;;15.90;73.30;;;;;;5093462;28;20023;-74
2023/06/03 10:13:23;;;;;;;0.63;0.50;;;15.90;73.30;;;;;;5089681;28;20085;-76
2023/06/03 10:15:50;;;;;;;1.70;0.60;;;15.90;73.40;;;;;;5093193;28;20032;-77
2023/06/03 10:18:16;;;;;;;1.27;0.57;;;15.90;73.30;;;;;;5091864;28;20503;-77
2023/06/03 10:20:43;;;;;;;1.10;0.70;;;15.90;73.40;;;;;;5092333;28;20569;-78
2023/06/03 10:23:11;;;;;;;0.85;0.73;;;15.90;73.30;;;;;;5092096;28;20078;-76
2023/06/03 10:25:45;;;;;;;2.35;0.70;;;15.90;73.40;;;;;;5092017;28;20448;-73
2023/06/03 10:28:12;;;;;;;2.80;0.55;;;15.90;73.50;;;;;;5092360;28;20032;-74
2023/06/03 10:30:42;;;;;;;1.52;0.40;;;15.90;72.50;;;;;;5090307;28;20040;-75
2023/06/03 10:33:09;;;;;;;0.85;0.80;;;15.90;72.70;;;;;;5090165;28;20036;-76
2023/06/03 10:35:38;;;;;;;2.95;0.70;;;15.90;73.50;;;;;;5091972;28;20054;-76
2023/06/03 10:38:09;;;;;;;0.82;0.65;;;16.00;75.70;;;;;;5078724;28;20089;-79
2023/06/03 10:40:35;;;;;;;1.58;0.60;;;16.00;75.30;;;;;;5057974;28;20032;-81
2023/06/03 10:43:02;;;;;;;1.58;0.52;;;16.10;75.50;;;;;;5093408;28;20040;-79
2023/06/03 10:45:30;;;;;;;2.75;0.50;;;16.10;74.80;;;;;;5092037;28;20032;-84
2023/06/03 10:48:12;;;;;;;2.70;0.60;;;16.20;75.20;;;;;;5092899;28;20036;-72
2023/06/03 10:50:47;;;;;;;1.17;0.50;;;16.20;75.20;;;;;;5091682;28;20554;-73
2023/06/03 10:53:51;;;;;;;0.88;0.50;;;16.30;75.10;;;;;;5088366;28;20091;-74
2023/06/03 10:56:32;;;;;;;2.05;0.85;;;16.30;73.90;;;;;;5090036;28;20040;-74
2023/06/03 10:59:12;;;;;;;0.52;0.50;;;16.30;72.90;;;;;;5089272;28;20092;-73
2023/06/03 11:02:04;;;;;;;1.70;0.50;;;16.20;72.40;;;;;;5091805;28;20050;-73
2023/06/03 11:04:33;;;;;;;3.15;0.68;;;16.10;71.30;;;;;;5088107;28;20032;-73
2023/06/03 11:07:00;;;;;;;1.60;1.00;;;16.10;71.30;;;;;;5091804;28;20063;-73
2023/06/03 11:09:41;;;;;;;1.65;0.60;;;16.10;71.70;;;;;;5095250;28;20105;-72
2023/06/03 11:12:13;;;;;;;2.15;0.95;;;16.10;72.50;;;;;;5094425;28;20052;-75
2023/06/03 11:14:44;;;;;;;1.80;0.80;;;16.10;71.70;;;;;;5094481;28;20044;-74
2023/06/03 11:17:12;;;;;;;2.38;1.00;;;16.00;71.70;;;;;;5094680;28;20039;-74
2023/06/03 11:19:50;;;;;;;1.33;1.00;;;16.00;71.60;;;;;;5094311;28;20046;-74
2023/06/03 11:22:37;;;;;;;4.88;0.98;;;16.00;71.10;;;;;;5094385;28;20038;-73
2023/06/03 11:25:04;;;;;;;1.77;1.00;;;16.00;71.10;;;;;;5093417;28;20066;-74
2023/06/03 11:27:30;;;;;;;5.28;1.08;;;16.00;70.50;;;;;;5095450;27;20031;-77
2023/06/03 11:29:59;;;;;;;1.15;0.70;;;16.00;70.10;;;;;;5094459;28;20073;-75
2023/06/03 11:32:27;;;;;;;1.77;0.85;;;15.90;70.20;;;;;;5094142;28;20047;-75
2023/06/03 11:34:59;;;;;;;1.00;0.70;;;15.90;69.50;;;;;;5093685;28;20040;-74
2023/06/03 11:37:40;;;;;;;1.80;0.95;;;15.90;70.20;;;;;;5093909;28;20122;-76
2023/06/03 11:40:18;;;;;;;1.90;0.80;;;15.90;70.70;;;;;;5094348;28;20024;-76
2023/06/03 11:42:47;;;;;;;1.08;0.60;;;15.90;71.10;;;;;;5094730;28;20067;-76
2023/06/03 11:45:25;;;;;;;3.25;0.90;;;15.90;71.00;;;;;;5095510;28;20113;-73
2023/06/03 11:47:55;;;;;;;4.10;0.57;;;15.90;70.90;;;;;;5093910;28;20043;-73
2023/06/03 11:50:32;;;;;;;1.70;0.90;;;15.90;70.40;;;;;;5092289;28;20586;-75
2023/06/03 11:52:58;;;;;;;2.35;0.55;;;15.80;70.20;;;;;;5090875;28;20347;-71
2023/06/03 11:55:29;;;;;;;6.85;0.85;;;15.80;69.70;;;;;;5092356;28;20031;-74
2023/06/03 11:58:07;;;;;;;3.00;0.70;;;15.90;71.20;;;;;;5091856;28;20038;-73
2023/06/03 12:00:33;;;;;;;1.73;0.65;;;15.90;70.80;;;;;;5090871;28;20028;-73
2023/06/03 12:02:59;;;;;;;2.35;0.80;;;15.90;70.50;;;;;;5091438;28;20039;-73
2023/06/03 12:05:25;;;;;;;2.15;0.70;;;15.90;70.30;;;;;;5090847;28;20118;-73
2023/06/03 12:08:01;;;;;;;5.72;1.20;;;15.90;70.40;;;;;;5091079;28;20049;-74
2023/06/03 12:10:27;;;;;;;4.60;0.77;;;15.90;70.40;;;;;;5091292;28;20526;-74
2023/06/03 12:12:57;;;;;;;2.15;0.70;;;16.00;70.50;;;;;;5091101;28;20204;-74
2023/06/03 12:15:24;;;;;;;1.00;0.75;;;15.90;68.70;;;;;;5090098;28;20097;-74
2023/06/03 12:17:51;;;;;;;2.35;0.80;;;16.00;69.40;;;;;;5089529;28;20039;-74
2023/06/03 12:20:27;;;;;;;6.40;1.10;;;15.90;70.10;;;;;;5089476;28;20134;-74
2023/06/03 12:23:04;;;;;;;6.63;1.20;;;16.00;70.60;;;;;;5090144;28;20061;-74
2023/06/03 12:25:34;;;;;;;6.38;1.40;;;16.00;69.80;;;;;;5090529;28;20050;-73
2023/06/03 12:28:26;;;;;;;3.40;0.90;;;16.00;70.00;;;;;;5086868;28;20042;-72
2023/06/03 12:30:52;;;;;;;6.07;1.45;;;16.00;70.10;;;;;;5090187;28;20040;-74
2023/06/03 12:33:18;;;;;;;1.33;0.98;;;16.00;69.90;;;;;;5091404;28;20036;-74
2023/06/03 12:35:56;;;;;;;4.93;0.98;;;16.10;70.40;;;;;;5089423;28;20134;-73
2023/06/03 12:38:23;;;;;;;4.32;0.68;;;16.10;69.80;;;;;;5089857;27;20032;-75
2023/06/03 12:40:52;;;;;;;2.25;0.77;;;16.10;70.30;;;;;;5091418;28;20138;-80
2023/06/03 12:43:22;;;;;;;2.50;0.90;;;16.10;70.30;;;;;;5089494;28;20075;-79
2023/06/03 12:45:48;;;;;;;3.03;0.77;;;16.10;70.20;;;;;;5088778;28;20055;-77
2023/06/03 12:48:32;;;;;;;2.95;0.85;;;16.10;69.50;;;;;;5089867;28;21370;-77
2023/06/03 12:51:00;;;;;;;2.08;0.80;;;16.10;68.60;;;;;;5090817;28;20496;-76
2023/06/03 12:53:25;;;;;;;2.15;1.00;;;16.00;68.40;;;;;;5090180;28;20155;-76
2023/06/03 12:55:52;;;;;;;1.70;0.90;;;16.00;69.10;;;;;;5091931;28;20044;-76
2023/06/03 12:58:19;;;;;;;3.30;0.90;;;16.00;69.10;;;;;;5090825;28;20058;-76